Ana Sayfa
METAR-TAF:

METAR-TAF

Havaalanları :

Kars Harakani Havalimanı

Kars, Türkiye

Enlem: 40-36N, Boylam: 043-05E, yükseklik: 1775 m

Güncel hava durumu gözlemi

Rapor saat 00:50 UTC de 21 dakika önce yapıldı.
Rüzgar kuzeydoğudan 9 kt
Sıcaklık 16°C
Nem 72%
Basınç 1016 hPa
Görüş mesafesi 10 km veya daha fazla
1500 m altında bulut yok ve kümülonimbus yok

METAR: LTCF 180050Z 05009KT CAVOK 16/11 Q1016

Saat: 04:11 (01:11 UTC)

Tahmin

Rapor saat 22:40 UTC de 2 saat ve 31 dakika önce yapıldı.
Ayın 18'si saat 00 UTC'den ayın 18'si saat 09 UTC'ye kadar geçerli Tahmin
Rüzgar doğu/kuzeydoğudan 8 kt
Görüş mesafesi 10 km veya daha fazla
1500 m altında bulut yok ve kümülonimbus yok

TAF: LTCF 172240Z 1800/1809 06008KT CAVOK

4.000'den fazla havaalanı için hava durumu gözlemleri ve tahminleri (METAR ve TAF raporları).

Kullanılabilir istasyonlar harita üzerinde sarı ve kırmızı noktalarla gösterilir.

İstasyonun adını görmek için fareyi noktanın üzerinde gezdirin.

Sonrasında hava gözlem ve tahminlerini görmek için tıklayın.

Haritayı değiştirmek için: yaklaştırmak için siyah artı işaretli yeşil düğmeye ve uzaklaştırmak için de eksi işaretli düğmeye hızla tıklayın; bitişik haritalar için yeşil okları kullanın.


METAR-TAF: